createdAt,value
2019-03-09T00:02:06.085Z,7.61
2019-03-09T00:04:34.459Z,7.51
2019-03-09T00:07:02.854Z,7.45
2019-03-09T00:09:31.474Z,7.54
2019-03-09T00:12:00.031Z,7.41
2019-03-09T00:14:28.420Z,7.48
2019-03-09T00:16:56.799Z,7.56
2019-03-09T00:19:25.193Z,7.49
2019-03-09T00:21:53.575Z,7.61
2019-03-09T00:24:23.826Z,7.64
2019-03-09T00:26:57.055Z,7.62
2019-03-09T00:29:29.744Z,7.67
2019-03-09T00:31:59.772Z,7.77
2019-03-09T00:34:28.169Z,7.70
2019-03-09T00:36:57.029Z,7.70
2019-03-09T00:39:25.635Z,7.61
2019-03-09T00:41:54.296Z,7.62
2019-03-09T00:44:22.952Z,7.51
2019-03-09T00:46:51.593Z,7.51
2019-03-09T00:49:19.986Z,7.45
2019-03-09T00:51:48.610Z,7.29
2019-03-09T00:54:16.985Z,7.26
2019-03-09T00:56:45.373Z,7.38
2019-03-09T00:59:13.751Z,7.36
2019-03-09T01:01:42.141Z,7.54
2019-03-09T01:04:10.758Z,7.49
2019-03-09T01:06:39.155Z,7.47
2019-03-09T01:09:09.014Z,7.59
2019-03-09T01:11:37.783Z,7.57
2019-03-09T01:14:06.334Z,7.67
2019-03-09T01:16:34.707Z,7.70
2019-03-09T01:19:03.101Z,7.78
2019-03-09T01:21:31.482Z,7.79
2019-03-09T01:24:00.099Z,7.89
2019-03-09T01:26:28.496Z,7.96
2019-03-09T01:28:57.115Z,7.93
2019-03-09T01:31:25.520Z,7.96
2019-03-09T01:33:53.886Z,8.07
2019-03-09T01:36:22.512Z,8.09
2019-03-09T01:38:51.143Z,8.09
2019-03-09T01:41:19.526Z,8.07
2019-03-09T01:43:47.915Z,8.15
2019-03-09T01:46:16.296Z,8.11
2019-03-09T01:48:44.916Z,8.14
2019-03-09T01:51:13.306Z,8.14
2019-03-09T01:53:41.687Z,8.17
2019-03-09T01:56:10.407Z,8.14
2019-03-09T01:58:38.788Z,8.12
2019-03-09T02:01:07.171Z,7.99
2019-03-09T02:03:35.800Z,8.01
2019-03-09T02:06:04.414Z,8.04
2019-03-09T02:08:32.813Z,8.08
2019-03-09T02:11:01.192Z,8.05
2019-03-09T02:13:29.816Z,8.12
2019-03-09T02:15:58.201Z,8.12
2019-03-09T02:18:26.812Z,8.18
2019-03-09T02:20:55.448Z,8.22
2019-03-09T02:23:23.824Z,8.15
2019-03-09T02:25:52.197Z,8.19
2019-03-09T02:28:20.824Z,8.27
2019-03-09T02:30:49.200Z,8.28
2019-03-09T02:33:17.590Z,8.30
2019-03-09T02:35:46.205Z,8.28
2019-03-09T02:38:16.456Z,8.36
2019-03-09T02:40:45.089Z,8.36
2019-03-09T02:43:13.464Z,8.37
2019-03-09T02:45:41.861Z,8.40
2019-03-09T02:48:10.259Z,8.39
2019-03-09T02:50:40.477Z,8.40
2019-03-09T02:53:08.867Z,8.29
2019-03-09T02:55:37.239Z,8.38
2019-03-09T02:58:05.638Z,8.36
2019-03-09T03:00:35.652Z,8.44
2019-03-09T03:03:05.846Z,8.43
2019-03-09T03:05:34.461Z,8.37
2019-03-09T03:08:02.838Z,8.36
2019-03-09T03:10:31.225Z,8.35
2019-03-09T03:12:59.831Z,8.33
2019-03-09T03:15:31.519Z,8.36
2019-03-09T03:17:59.897Z,8.45
2019-03-09T03:20:28.274Z,8.44
2019-03-09T03:22:56.722Z,8.39
2019-03-09T03:25:25.100Z,8.39
2019-03-09T03:27:53.489Z,8.38
2019-03-09T03:30:21.946Z,8.35
2019-03-09T03:32:51.637Z,8.42
2019-03-09T03:35:20.259Z,8.44
2019-03-09T03:37:48.638Z,8.35
2019-03-09T03:40:17.104Z,8.36
2019-03-09T03:42:45.477Z,8.31
2019-03-09T03:45:14.891Z,8.31
2019-03-09T03:47:43.274Z,8.34
2019-03-09T03:50:12.043Z,8.32
2019-03-09T03:52:40.505Z,8.38
2019-03-09T03:55:10.198Z,8.32
2019-03-09T03:57:38.887Z,8.40
2019-03-09T04:00:13.079Z,8.38
2019-03-09T04:02:41.467Z,8.36
2019-03-09T04:05:09.928Z,8.38
2019-03-09T04:07:38.370Z,8.33
2019-03-09T04:10:09.732Z,8.34
2019-03-09T04:12:38.355Z,8.35
2019-03-09T04:15:07.531Z,8.29
2019-03-09T04:17:36.118Z,8.42
2019-03-09T04:20:06.882Z,8.47
2019-03-09T04:22:35.489Z,8.49
2019-03-09T04:25:04.795Z,8.50
2019-03-09T04:27:33.415Z,8.58
2019-03-09T04:30:02.097Z,8.58
2019-03-09T04:32:30.484Z,8.66
2019-03-09T04:34:58.869Z,8.69
2019-03-09T04:37:27.242Z,8.71
2019-03-09T04:39:55.939Z,8.76
2019-03-09T04:42:24.309Z,8.78
2019-03-09T04:44:52.744Z,8.78
2019-03-09T04:47:21.143Z,8.75
2019-03-09T04:49:49.514Z,8.75
2019-03-09T04:52:17.909Z,8.80
2019-03-09T04:54:46.570Z,8.80
2019-03-09T04:57:14.942Z,8.72
2019-03-09T04:59:43.316Z,8.78
2019-03-09T05:02:11.967Z,8.76
2019-03-09T05:04:42.918Z,8.72
2019-03-09T05:07:12.729Z,8.72
2019-03-09T05:09:59.479Z,8.69
2019-03-09T05:12:27.861Z,8.72
2019-03-09T05:14:56.464Z,8.59
2019-03-09T05:17:25.099Z,8.59
2019-03-09T05:19:53.715Z,8.54
2019-03-09T05:22:22.088Z,8.43
2019-03-09T05:24:50.716Z,8.40
2019-03-09T05:27:19.396Z,8.31
2019-03-09T05:29:48.008Z,8.20
2019-03-09T05:32:16.644Z,8.17
2019-03-09T05:34:45.021Z,8.11
2019-03-09T05:37:13.406Z,7.97
2019-03-09T05:39:41.798Z,7.85
2019-03-09T05:42:10.422Z,7.84
2019-03-09T05:44:38.800Z,7.77
2019-03-09T05:47:07.194Z,7.66
2019-03-09T05:49:35.810Z,7.73
2019-03-09T05:52:22.085Z,7.72
2019-03-09T05:54:50.838Z,7.74
2019-03-09T05:57:19.220Z,7.77
2019-03-09T05:59:47.614Z,7.74
2019-03-09T06:02:15.993Z,7.74
2019-03-09T06:04:44.619Z,7.74
2019-03-09T06:07:13.264Z,7.74
2019-03-09T06:09:41.660Z,7.78
2019-03-09T06:12:10.037Z,7.75
2019-03-09T06:14:38.666Z,7.78
2019-03-09T06:17:07.047Z,7.81
2019-03-09T06:19:35.421Z,7.80
2019-03-09T06:22:03.826Z,7.77
2019-03-09T06:24:32.198Z,7.68
2019-03-09T06:27:00.577Z,7.73
2019-03-09T06:29:29.232Z,7.71
2019-03-09T06:32:32.311Z,7.74
2019-03-09T06:35:00.776Z,7.78
2019-03-09T06:37:30.193Z,7.83
2019-03-09T06:39:58.813Z,7.87
2019-03-09T06:42:30.624Z,7.88
2019-03-09T06:44:59.238Z,7.95
2019-03-09T06:47:27.860Z,8.01
2019-03-09T06:49:56.254Z,7.99
2019-03-09T06:52:24.635Z,8.03
2019-03-09T06:54:53.036Z,8.07
2019-03-09T06:57:21.431Z,8.09
2019-03-09T06:59:49.809Z,8.15
2019-03-09T07:02:18.191Z,8.16
2019-03-09T07:04:46.573Z,8.14
2019-03-09T07:07:15.206Z,8.17
2019-03-09T07:09:43.834Z,8.33
2019-03-09T07:12:12.446Z,8.37
2019-03-09T07:14:56.241Z,8.30
2019-03-09T07:17:24.876Z,8.32
2019-03-09T07:19:53.253Z,8.40
2019-03-09T07:22:21.639Z,8.37
2019-03-09T07:24:50.035Z,8.40
2019-03-09T07:27:18.414Z,8.34
2019-03-09T07:29:46.866Z,8.38
2019-03-09T07:32:15.309Z,8.32
2019-03-09T07:34:43.691Z,8.46
2019-03-09T07:37:12.087Z,8.54
2019-03-09T07:39:40.702Z,8.68
2019-03-09T07:42:09.320Z,8.80
2019-03-09T07:44:37.713Z,8.91
2019-03-09T07:47:06.092Z,8.95
2019-03-09T07:49:34.724Z,9.04
2019-03-09T07:52:06.156Z,9.14
2019-03-09T07:54:34.526Z,9.19
2019-03-09T07:57:03.156Z,9.20
2019-03-09T07:59:31.760Z,9.33
2019-03-09T08:02:00.426Z,9.49
2019-03-09T08:04:28.799Z,9.47
2019-03-09T08:06:57.172Z,9.57
2019-03-09T08:09:25.569Z,9.55
2019-03-09T08:11:54.166Z,9.46
2019-03-09T08:14:22.559Z,9.43
2019-03-09T08:16:50.929Z,9.55
2019-03-09T08:19:19.320Z,9.71
2019-03-09T08:21:47.711Z,9.79
2019-03-09T08:24:16.081Z,9.90
2019-03-09T08:26:44.474Z,10.06
2019-03-09T08:29:12.850Z,10.14
2019-03-09T08:31:41.485Z,10.16
2019-03-09T08:34:10.106Z,10.32
2019-03-09T08:36:38.743Z,10.28
2019-03-09T08:39:07.515Z,10.26
2019-03-09T08:41:35.879Z,10.23
2019-03-09T08:44:04.252Z,10.35
2019-03-09T08:46:32.618Z,10.13
2019-03-09T08:49:01.249Z,10.28
2019-03-09T08:51:29.867Z,10.42
2019-03-09T08:53:58.266Z,10.35
2019-03-09T08:56:26.876Z,10.30
2019-03-09T08:58:55.259Z,10.39
2019-03-09T09:01:23.922Z,10.32
2019-03-09T09:03:52.314Z,10.35
2019-03-09T09:06:20.930Z,10.39
2019-03-09T09:08:49.322Z,10.32
2019-03-09T09:11:17.704Z,10.34
2019-03-09T09:13:46.087Z,10.49
2019-03-09T09:16:14.470Z,10.62
2019-03-09T09:18:43.090Z,10.74
2019-03-09T09:21:11.493Z,10.60
2019-03-09T09:23:39.866Z,10.65
2019-03-09T09:26:08.504Z,10.68
2019-03-09T09:28:38.010Z,10.83
2019-03-09T09:31:06.392Z,10.76
2019-03-09T09:33:35.019Z,10.78
2019-03-09T09:36:03.578Z,10.73
2019-03-09T09:38:31.962Z,10.73
2019-03-09T09:41:00.342Z,10.68
2019-03-09T09:43:28.721Z,10.77
2019-03-09T09:45:57.112Z,10.74
2019-03-09T09:48:25.725Z,10.76
2019-03-09T09:50:54.125Z,10.99
2019-03-09T09:53:23.592Z,10.95
2019-03-09T09:55:51.996Z,11.04
2019-03-09T09:58:20.394Z,10.93
2019-03-09T10:00:49.014Z,10.86
2019-03-09T10:03:17.470Z,10.98
2019-03-09T10:05:46.094Z,10.79
2019-03-09T10:08:14.471Z,10.73
2019-03-09T10:10:42.861Z,10.76
2019-03-09T10:13:11.269Z,10.64
2019-03-09T10:15:39.693Z,10.85
2019-03-09T10:18:08.274Z,10.91
2019-03-09T10:20:36.897Z,10.94
2019-03-09T10:23:05.301Z,10.95
2019-03-09T10:25:33.678Z,10.97
2019-03-09T10:28:02.073Z,10.93
2019-03-09T10:30:30.687Z,10.86
2019-03-09T10:32:59.066Z,10.88
2019-03-09T10:35:27.457Z,10.95
2019-03-09T10:37:55.839Z,11.00
2019-03-09T10:40:24.226Z,10.91
2019-03-09T10:42:52.842Z,11.36
2019-03-09T10:45:21.889Z,11.54
2019-03-09T10:47:51.022Z,11.73
2019-03-09T10:50:20.239Z,11.73
2019-03-09T10:52:48.971Z,11.67
2019-03-09T10:55:20.129Z,11.71
2019-03-09T10:57:48.514Z,11.68
2019-03-09T11:00:22.131Z,11.88
2019-03-09T11:02:50.514Z,11.74
2019-03-09T11:05:19.149Z,11.50
2019-03-09T11:07:47.770Z,11.48
2019-03-09T11:10:16.147Z,11.35
2019-03-09T11:12:44.548Z,11.56
2019-03-09T11:15:13.058Z,11.68
2019-03-09T11:17:41.449Z,11.83
2019-03-09T11:20:12.826Z,12.04
2019-03-09T11:22:41.263Z,12.17
2019-03-09T11:25:10.103Z,12.11
2019-03-09T11:27:38.472Z,12.07
2019-03-09T11:30:10.158Z,12.22
2019-03-09T11:32:38.542Z,12.05
2019-03-09T11:35:06.990Z,12.23
2019-03-09T11:37:35.614Z,12.20
2019-03-09T11:40:04.162Z,12.22
2019-03-09T11:42:32.558Z,12.18
2019-03-09T11:45:00.936Z,12.17
2019-03-09T11:47:29.550Z,12.29
2019-03-09T11:49:57.938Z,12.03
2019-03-09T11:52:29.009Z,12.33
2019-03-09T11:54:56.924Z,12.45
2019-03-09T11:57:25.515Z,12.11
2019-03-09T11:59:53.895Z,12.09
2019-03-09T12:02:22.291Z,11.74
2019-03-09T12:04:50.901Z,11.61
2019-03-09T12:07:19.538Z,11.53
2019-03-09T12:09:47.921Z,11.58
2019-03-09T12:12:16.542Z,11.49
2019-03-09T12:14:45.218Z,11.56
2019-03-09T12:17:13.603Z,11.55
2019-03-09T12:19:41.989Z,11.58
2019-03-09T12:22:10.368Z,11.63
2019-03-09T12:27:06.238Z,11.61
2019-03-09T12:29:34.858Z,11.59
2019-03-09T12:32:03.490Z,11.60
2019-03-09T12:34:31.923Z,11.63
2019-03-09T12:37:00.354Z,11.57
2019-03-09T12:39:28.743Z,11.57
2019-03-09T12:41:57.463Z,11.60
2019-03-09T12:44:25.855Z,11.63
2019-03-09T12:46:54.465Z,11.70
2019-03-09T12:49:23.102Z,11.69
2019-03-09T12:54:18.804Z,12.07
2019-03-09T12:56:47.198Z,12.07
2019-03-09T12:59:15.571Z,12.05
2019-03-09T13:01:43.968Z,11.88
2019-03-09T13:04:12.823Z,12.03
2019-03-09T13:06:41.447Z,12.23
2019-03-09T13:09:10.112Z,12.31
2019-03-09T13:11:38.793Z,12.49
2019-03-09T13:14:07.513Z,12.49
2019-03-09T13:16:35.893Z,12.24
2019-03-09T13:19:04.505Z,12.36
2019-03-09T13:21:32.894Z,12.35
2019-03-09T13:24:01.509Z,12.37
2019-03-09T13:26:29.898Z,12.33
2019-03-09T13:28:58.276Z,12.41
2019-03-09T13:31:26.654Z,12.24
2019-03-09T13:33:55.047Z,12.36
2019-03-09T13:36:23.427Z,12.23
2019-03-09T13:38:52.057Z,12.23
2019-03-09T13:41:20.673Z,12.36
2019-03-09T13:43:49.294Z,12.13
2019-03-09T13:46:17.921Z,12.15
2019-03-09T13:48:46.543Z,12.07
2019-03-09T13:51:14.942Z,12.10
2019-03-09T13:53:43.559Z,11.93
2019-03-09T13:56:11.937Z,11.75
2019-03-09T13:58:40.329Z,11.71
2019-03-09T14:01:08.722Z,11.68
2019-03-09T14:03:37.472Z,11.61
2019-03-09T14:06:06.022Z,11.69
2019-03-09T14:08:34.400Z,11.61
2019-03-09T14:11:02.862Z,11.58
2019-03-09T14:13:31.299Z,11.39
2019-03-09T14:15:59.926Z,11.30
2019-03-09T14:18:28.306Z,11.08
2019-03-09T14:20:56.700Z,10.98
2019-03-09T14:23:25.154Z,10.84
2019-03-09T14:25:53.592Z,10.69
2019-03-09T14:28:21.991Z,10.57
2019-03-09T14:30:50.379Z,10.56
2019-03-09T14:33:20.776Z,10.57
2019-03-09T14:35:48.876Z,10.63
2019-03-09T14:38:17.258Z,10.75
2019-03-09T14:40:45.660Z,10.76
2019-03-09T14:43:14.111Z,10.82
2019-03-09T14:45:42.495Z,10.80
2019-03-09T14:48:11.130Z,10.81
2019-03-09T14:50:39.558Z,10.97
2019-03-09T14:53:07.956Z,11.14
2019-03-09T14:55:36.330Z,11.04
2019-03-09T14:58:04.718Z,11.01
2019-03-09T15:00:33.121Z,11.28
2019-03-09T15:03:01.487Z,11.49
2019-03-09T15:05:29.891Z,11.36
2019-03-09T15:07:58.512Z,11.38
2019-03-09T15:10:27.126Z,11.47
2019-03-09T15:12:55.753Z,11.57
2019-03-09T15:15:24.152Z,11.43
2019-03-09T15:17:52.545Z,11.38
2019-03-09T15:20:20.929Z,11.29
2019-03-09T15:22:49.636Z,11.24
2019-03-09T15:25:19.167Z,11.29
2019-03-09T15:27:48.049Z,11.29
2019-03-09T15:30:18.458Z,11.34
2019-03-09T15:32:46.897Z,11.44
2019-03-09T15:35:18.536Z,11.42
2019-03-09T15:37:46.998Z,11.42
2019-03-09T15:40:18.072Z,11.30
2019-03-09T15:42:46.458Z,11.27
2019-03-09T15:45:18.523Z,11.23
2019-03-09T15:47:46.970Z,11.29
2019-03-09T15:50:22.278Z,11.24
2019-03-09T15:52:52.235Z,11.30
2019-03-09T15:55:20.633Z,11.35
2019-03-09T15:57:49.247Z,11.27
2019-03-09T16:00:22.375Z,11.24
2019-03-09T16:02:50.831Z,11.17
2019-03-09T16:05:19.210Z,11.14
2019-03-09T16:07:47.618Z,11.14
2019-03-09T16:10:17.201Z,11.07
2019-03-09T16:12:45.580Z,11.11
2019-03-09T16:15:15.647Z,11.16
2019-03-09T16:17:44.096Z,11.24
2019-03-09T16:20:15.274Z,11.25
2019-03-09T16:22:44.030Z,11.27
2019-03-09T16:25:12.483Z,11.29
2019-03-09T16:27:40.883Z,11.20
2019-03-09T16:30:12.713Z,11.43
2019-03-09T16:32:41.163Z,11.35
2019-03-09T16:35:09.778Z,11.41
2019-03-09T16:37:38.391Z,11.38
2019-03-09T16:40:12.357Z,11.33
2019-03-09T16:42:41.040Z,11.36
2019-03-09T16:45:10.809Z,11.41
2019-03-09T16:47:39.426Z,11.37
2019-03-09T16:50:13.935Z,11.34
2019-03-09T16:52:42.550Z,11.32
2019-03-09T16:55:11.199Z,11.28
2019-03-09T16:57:39.843Z,11.27
2019-03-09T17:00:11.493Z,11.28
2019-03-09T17:02:39.887Z,11.27
2019-03-09T17:05:08.505Z,11.21
2019-03-09T17:07:37.139Z,11.14
2019-03-09T17:10:07.458Z,11.16
2019-03-09T17:12:35.869Z,11.17
2019-03-09T17:15:07.157Z,11.14
2019-03-09T17:17:35.769Z,11.08
2019-03-09T17:20:05.033Z,11.05
2019-03-09T17:22:33.551Z,11.12
2019-03-09T17:25:02.226Z,11.12
2019-03-09T17:27:30.849Z,11.02
2019-03-09T17:29:59.225Z,11.00
2019-03-09T17:32:27.854Z,10.99
2019-03-09T17:34:56.237Z,11.08
2019-03-09T17:37:24.868Z,11.01
2019-03-09T17:39:53.311Z,11.12
2019-03-09T17:42:21.782Z,11.18
2019-03-09T17:44:50.205Z,11.14
2019-03-09T17:47:18.826Z,11.07
2019-03-09T17:49:47.231Z,11.05
2019-03-09T17:52:15.600Z,11.03
2019-03-09T17:54:44.002Z,11.03
2019-03-09T17:57:12.387Z,11.04
2019-03-09T17:59:40.761Z,11.10
2019-03-09T18:02:09.390Z,11.18
2019-03-09T18:04:38.023Z,11.16
2019-03-09T18:07:06.654Z,11.17
2019-03-09T18:09:35.034Z,11.14
2019-03-09T18:12:03.653Z,11.15
2019-03-09T18:14:32.042Z,11.13
2019-03-09T18:17:00.424Z,11.15
2019-03-09T18:19:28.820Z,11.10
2019-03-09T18:21:57.197Z,11.09
2019-03-09T18:24:25.634Z,11.15
2019-03-09T18:26:54.258Z,11.10
2019-03-09T18:29:22.638Z,11.09
2019-03-09T18:31:51.038Z,11.08
2019-03-09T18:34:19.646Z,11.15
2019-03-09T18:36:48.029Z,11.13
2019-03-09T18:39:16.450Z,11.17
2019-03-09T18:41:45.033Z,11.12
2019-03-09T18:44:13.689Z,11.13
2019-03-09T18:46:42.067Z,11.15
2019-03-09T18:49:10.698Z,11.12
2019-03-09T18:51:39.070Z,11.07
2019-03-09T18:54:07.691Z,11.08
2019-03-09T18:56:36.087Z,11.15
2019-03-09T18:59:04.882Z,11.12
2019-03-09T19:01:33.261Z,11.14
2019-03-09T19:04:01.651Z,11.12
2019-03-09T19:06:30.027Z,11.15
2019-03-09T19:08:58.428Z,11.14
2019-03-09T19:11:27.040Z,11.09
2019-03-09T19:13:55.417Z,11.16
2019-03-09T19:16:23.809Z,11.23
2019-03-09T19:18:52.244Z,11.21
2019-03-09T19:21:20.646Z,11.22
2019-03-09T19:23:49.031Z,11.09
2019-03-09T19:26:17.642Z,11.00
2019-03-09T19:28:46.035Z,11.18
2019-03-09T19:31:14.410Z,11.20
2019-03-09T19:33:42.805Z,11.23
2019-03-09T19:36:11.417Z,11.30
2019-03-09T19:38:39.797Z,11.40
2019-03-09T19:41:08.429Z,11.42
2019-03-09T19:43:36.807Z,11.45
2019-03-09T19:46:05.447Z,11.39
2019-03-09T19:48:33.827Z,11.37
2019-03-09T19:51:02.221Z,11.38
2019-03-09T19:53:30.842Z,11.39
2019-03-09T19:55:59.529Z,11.43
2019-03-09T19:58:27.922Z,11.36
2019-03-09T20:00:56.375Z,11.46
2019-03-09T20:03:24.783Z,11.41
2019-03-09T20:05:53.164Z,11.43
2019-03-09T20:08:21.792Z,11.42
2019-03-09T20:10:50.255Z,11.41
2019-03-09T20:13:18.637Z,11.38
2019-03-09T20:15:47.250Z,11.44
2019-03-09T20:18:15.881Z,11.44
2019-03-09T20:20:44.501Z,11.46
2019-03-09T20:23:12.909Z,11.47
2019-03-09T20:25:41.292Z,11.47
2019-03-09T20:28:09.911Z,11.46
2019-03-09T20:30:38.364Z,11.42
2019-03-09T20:33:06.770Z,11.43
2019-03-09T20:35:35.169Z,11.33
2019-03-09T20:38:03.546Z,11.39
2019-03-09T20:40:31.933Z,11.40
2019-03-09T20:43:00.563Z,11.36
2019-03-09T20:45:28.950Z,11.35
2019-03-09T20:47:57.586Z,11.35
2019-03-09T20:50:25.968Z,11.39
2019-03-09T20:52:54.352Z,11.37
2019-03-09T20:55:22.751Z,11.36
2019-03-09T20:57:51.130Z,11.37
2019-03-09T21:00:21.064Z,11.40
2019-03-09T21:02:49.455Z,11.30
2019-03-09T21:05:18.165Z,11.34
2019-03-09T21:07:46.523Z,11.33
2019-03-09T21:10:19.951Z,11.35
2019-03-09T21:13:00.054Z,11.25
2019-03-09T21:15:28.619Z,11.30
2019-03-09T21:17:57.242Z,11.34
2019-03-09T21:20:25.702Z,11.27
2019-03-09T21:22:54.313Z,11.27
2019-03-09T21:25:22.957Z,11.27
2019-03-09T21:27:51.576Z,11.16
2019-03-09T21:30:20.030Z,11.10
2019-03-09T21:32:48.427Z,11.00
2019-03-09T21:35:17.059Z,10.95
2019-03-09T21:37:45.526Z,10.90
2019-03-09T21:40:14.292Z,10.89
2019-03-09T21:42:42.910Z,10.80
2019-03-09T21:45:13.412Z,10.79
2019-03-09T21:47:42.108Z,10.75
2019-03-09T21:50:12.748Z,10.73
2019-03-09T21:52:41.129Z,10.80
2019-03-09T21:55:12.286Z,10.74
2019-03-09T21:57:40.919Z,10.79
2019-03-09T22:00:12.351Z,10.80
2019-03-09T22:02:40.994Z,10.75
2019-03-09T22:05:11.748Z,10.73
2019-03-09T22:07:40.200Z,10.74
2019-03-09T22:10:10.228Z,10.78
2019-03-09T22:12:38.679Z,10.79
2019-03-09T22:15:15.197Z,10.70
2019-03-09T22:17:43.891Z,10.68
2019-03-09T22:20:13.306Z,10.71
2019-03-09T22:22:41.949Z,10.69
2019-03-09T22:25:11.460Z,10.74
2019-03-09T22:27:40.351Z,10.76
2019-03-09T22:30:14.827Z,10.70
2019-03-09T22:32:43.454Z,10.72
2019-03-09T22:35:12.884Z,10.75
2019-03-09T22:37:41.510Z,10.78
2019-03-09T22:40:17.095Z,10.78
2019-03-09T22:42:45.544Z,10.82
2019-03-09T22:45:15.747Z,10.85
2019-03-09T22:47:44.255Z,10.86
2019-03-09T22:50:16.736Z,10.92
2019-03-09T22:52:45.377Z,10.92
2019-03-09T22:55:13.838Z,10.89
2019-03-09T22:57:42.450Z,10.92
2019-03-09T23:00:14.018Z,10.90
2019-03-09T23:02:44.821Z,10.93
2019-03-09T23:05:13.200Z,10.93
2019-03-09T23:07:41.581Z,10.93
2019-03-09T23:10:15.173Z,10.93
2019-03-09T23:12:43.634Z,10.92
2019-03-09T23:15:14.522Z,10.95
2019-03-09T23:17:43.076Z,10.96
2019-03-09T23:20:13.686Z,10.98
2019-03-09T23:22:42.135Z,10.97
2019-03-09T23:25:11.602Z,10.94
2019-03-09T23:27:39.979Z,11.00
2019-03-09T23:30:14.558Z,10.99
2019-03-09T23:32:42.939Z,10.97
2019-03-09T23:35:11.392Z,10.92
2019-03-09T23:37:39.854Z,10.93
2019-03-09T23:40:11.026Z,10.97
2019-03-09T23:42:39.423Z,10.99
2019-03-09T23:45:18.924Z,10.98
2019-03-09T23:47:47.455Z,10.95
2019-03-09T23:50:17.091Z,10.94
2019-03-09T23:52:45.700Z,10.89
2019-03-09T23:55:21.787Z,10.82
2019-03-09T23:57:45.003Z,10.78
